sensor_id;sensor_type;location;lat;lon;timestamp;pressure;altitude;pressure_sealevel;temperature;humidity
26443;BME280;5563;52.296;6.806;2022-12-18T00:01:33;102759.44;;;16.45;40.60
26443;BME280;5563;52.296;6.806;2022-12-18T00:04:22;102753.56;;;16.40;40.52
26443;BME280;5563;52.296;6.806;2022-12-18T00:07:16;102735.03;;;16.36;40.54
26443;BME280;5563;52.296;6.806;2022-12-18T00:10:03;102740.09;;;16.40;40.53
26443;BME280;5563;52.296;6.806;2022-12-18T00:13:00;102745.59;;;16.39;40.59
26443;BME280;5563;52.296;6.806;2022-12-18T00:15:53;102745.72;;;16.37;40.32
26443;BME280;5563;52.296;6.806;2022-12-18T00:18:48;102734.53;;;16.31;40.47
26443;BME280;5563;52.296;6.806;2022-12-18T00:21:35;102740.91;;;16.30;40.63
26443;BME280;5563;52.296;6.806;2022-12-18T00:24:29;102758.19;;;16.38;40.55
26443;BME280;5563;52.296;6.806;2022-12-18T00:27:29;102759.91;;;16.39;40.32
26443;BME280;5563;52.296;6.806;2022-12-18T00:30:22;102739.09;;;16.30;40.43
26443;BME280;5563;52.296;6.806;2022-12-18T00:33:09;102745.59;;;16.39;40.26
26443;BME280;5563;52.296;6.806;2022-12-18T00:36:03;102744.22;;;16.33;40.42
26443;BME280;5563;52.296;6.806;2022-12-18T00:38:51;102744.56;;;16.29;40.29
26443;BME280;5563;52.296;6.806;2022-12-18T00:41:46;102745.88;;;16.23;40.37
26443;BME280;5563;52.296;6.806;2022-12-18T00:44:58;102747.16;;;16.30;40.39
26443;BME280;5563;52.296;6.806;2022-12-18T00:47:45;102738.34;;;16.28;40.28
26443;BME280;5563;52.296;6.806;2022-12-18T00:50:39;102735.41;;;16.31;40.20
26443;BME280;5563;52.296;6.806;2022-12-18T00:53:26;102741.78;;;16.30;40.26
26443;BME280;5563;52.296;6.806;2022-12-18T00:56:22;102739.09;;;16.30;40.43
26443;BME280;5563;52.296;6.806;2022-12-18T00:59:09;102733.78;;;16.29;40.30
26443;BME280;5563;52.296;6.806;2022-12-18T01:02:03;102727.78;;;16.25;40.21
26443;BME280;5563;52.296;6.806;2022-12-18T01:04:56;102736.72;;;16.26;40.00
26443;BME280;5563;52.296;6.806;2022-12-18T01:07:42;102730.59;;;16.23;40.38
26443;BME280;5563;52.296;6.806;2022-12-18T01:10:36;102734.66;;;16.29;40.08
26443;BME280;5563;52.296;6.806;2022-12-18T01:13:22;102717.00;;;16.25;39.81
26443;BME280;5563;52.296;6.806;2022-12-18T01:16:16;102722.06;;;16.30;39.78
26443;BME280;5563;52.296;6.806;2022-12-18T01:19:11;102712.03;;;16.32;39.82
26443;BME280;5563;52.296;6.806;2022-12-18T01:22:04;102709.69;;;16.27;40.03
26443;BME280;5563;52.296;6.806;2022-12-18T01:24:57;102718.50;;;16.29;39.94
26443;BME280;5563;52.296;6.806;2022-12-18T01:27:51;102714.31;;;16.25;39.93
26443;BME280;5563;52.296;6.806;2022-12-18T01:30:38;102722.19;;;16.28;39.95
26443;BME280;5563;52.296;6.806;2022-12-18T01:33:31;102737.78;;;16.23;39.50
26443;BME280;5563;52.296;6.806;2022-12-18T01:36:20;102736.94;;;16.23;39.46
26443;BME280;5563;52.296;6.806;2022-12-18T01:39:14;102744.78;;;16.26;39.50
26443;BME280;5563;52.296;6.806;2022-12-18T01:42:12;102742.97;;;16.26;39.83
26443;BME280;5563;52.296;6.806;2022-12-18T01:48:01;102741.34;;;16.23;39.85
26443;BME280;5563;52.296;6.806;2022-12-18T01:50:55;102743.09;;;16.25;39.94
26443;BME280;5563;52.296;6.806;2022-12-18T01:53:43;102731.69;;;16.21;39.83
26443;BME280;5563;52.296;6.806;2022-12-18T01:56:37;102732.66;;;16.20;39.56
26443;BME280;5563;52.296;6.806;2022-12-18T01:59:23;102725.03;;;16.14;39.57
26443;BME280;5563;52.296;6.806;2022-12-18T02:02:17;102742.53;;;16.19;39.46
26443;BME280;5563;52.296;6.806;2022-12-18T02:05:05;102742.47;;;16.21;39.38
26443;BME280;5563;52.296;6.806;2022-12-18T02:11:06;102734.47;;;16.19;39.40
26443;BME280;5563;52.296;6.806;2022-12-18T02:14:12;102747.47;;;16.26;39.45
26443;BME280;5563;52.296;6.806;2022-12-18T02:17:19;102740.72;;;16.20;39.66
26443;BME280;5563;52.296;6.806;2022-12-18T02:20:32;102741.72;;;16.19;39.62
26443;BME280;5563;52.296;6.806;2022-12-18T02:26:49;102736.31;;;16.19;39.71
26443;BME280;5563;52.296;6.806;2022-12-18T02:29:49;102733.00;;;16.15;39.13
26443;BME280;5563;52.296;6.806;2022-12-18T02:32:47;102732.75;;;16.18;39.31
26443;BME280;5563;52.296;6.806;2022-12-18T02:35:43;102739.84;;;16.19;39.28
26443;BME280;5563;52.296;6.806;2022-12-18T02:38:38;102733.63;;;16.19;39.61
26443;BME280;5563;52.296;6.806;2022-12-18T02:41:39;102724.06;;;16.15;39.61
26443;BME280;5563;52.296;6.806;2022-12-18T02:44:48;102735.19;;;16.10;39.72
26443;BME280;5563;52.296;6.806;2022-12-18T02:47:40;102733.22;;;16.12;39.26
26443;BME280;5563;52.296;6.806;2022-12-18T02:50:38;102717.41;;;16.08;39.28
26443;BME280;5563;52.296;6.806;2022-12-18T02:53:37;102727.81;;;16.12;39.30
26443;BME280;5563;52.296;6.806;2022-12-18T02:56:42;102738.16;;;16.18;39.02
26443;BME280;5563;52.296;6.806;2022-12-18T02:59:46;102738.16;;;16.18;39.12
26443;BME280;5563;52.296;6.806;2022-12-18T03:02:54;102738.91;;;16.20;39.02
26443;BME280;5563;52.296;6.806;2022-12-18T03:06:03;102741.72;;;16.19;38.98
26443;BME280;5563;52.296;6.806;2022-12-18T03:08:56;102744.41;;;16.19;38.88
26443;BME280;5563;52.296;6.806;2022-12-18T03:12:04;102740.84;;;16.18;39.17
26443;BME280;5563;52.296;6.806;2022-12-18T03:15:17;102735.69;;;16.15;39.31
26443;BME280;5563;52.296;6.806;2022-12-18T03:18:18;102731.25;;;16.14;39.35
26443;BME280;5563;52.296;6.806;2022-12-18T03:21:07;102728.81;;;16.11;38.82
26443;BME280;5563;52.296;6.806;2022-12-18T03:24:06;102724.41;;;16.10;39.04
26443;BME280;5563;52.296;6.806;2022-12-18T03:27:12;102712.91;;;16.08;38.85
26443;BME280;5563;52.296;6.806;2022-12-18T03:30:05;102726.25;;;16.10;38.72
26443;BME280;5563;52.296;6.806;2022-12-18T03:33:19;102720.97;;;16.08;39.00
26443;BME280;5563;52.296;6.806;2022-12-18T03:36:10;102730.50;;;16.12;39.17
26443;BME280;5563;52.296;6.806;2022-12-18T03:39:04;102712.16;;;16.06;38.99
26443;BME280;5563;52.296;6.806;2022-12-18T03:42:12;102708.72;;;16.04;38.80
26443;BME280;5563;52.296;6.806;2022-12-18T03:45:26;102710.97;;;16.10;38.71
26443;BME280;5563;52.296;6.806;2022-12-18T03:48:26;102702.03;;;16.10;38.71
26443;BME280;5563;52.296;6.806;2022-12-18T03:51:28;102704.47;;;16.13;39.02
26443;BME280;5563;52.296;6.806;2022-12-18T03:54:27;102704.34;;;16.14;38.60
26443;BME280;5563;52.296;6.806;2022-12-18T03:57:25;102696.41;;;16.13;38.37
26443;BME280;5563;52.296;6.806;2022-12-18T04:00:19;102704.34;;;16.14;38.55
26443;BME280;5563;52.296;6.806;2022-12-18T04:03:08;102692.22;;;16.09;38.45
26443;BME280;5563;52.296;6.806;2022-12-18T04:06:03;102688.88;;;16.05;38.63
26443;BME280;5563;52.296;6.806;2022-12-18T04:08:52;102687.19;;;16.04;38.57
26443;BME280;5563;52.296;6.806;2022-12-18T04:11:46;102701.28;;;16.08;39.18
26443;BME280;5563;52.296;6.806;2022-12-18T04:14:34;102694.50;;;16.02;38.45
26443;BME280;5563;52.296;6.806;2022-12-18T04:17:28;102698.56;;;16.08;38.34
26443;BME280;5563;52.296;6.806;2022-12-18T04:20:15;102695.88;;;16.08;38.59
26443;BME280;5563;52.296;6.806;2022-12-18T04:23:09;102694.19;;;16.07;38.71
26443;BME280;5563;52.296;6.806;2022-12-18T04:25:56;102680.31;;;16.00;38.62
26443;BME280;5563;52.296;6.806;2022-12-18T04:28:49;102698.81;;;16.05;38.90
26443;BME280;5563;52.296;6.806;2022-12-18T04:31:42;102688.50;;;15.99;39.05
26443;BME280;5563;52.296;6.806;2022-12-18T04:34:35;102685.06;;;15.97;38.49
26443;BME280;5563;52.296;6.806;2022-12-18T04:37:28;102685.06;;;15.97;38.63
26443;BME280;5563;52.296;6.806;2022-12-18T04:40:21;102692.69;;;16.03;38.26
26443;BME280;5563;52.296;6.806;2022-12-18T04:43:07;102683.97;;;15.99;38.23
26443;BME280;5563;52.296;6.806;2022-12-18T04:46:06;102695.88;;;16.08;38.28
26443;BME280;5563;52.296;6.806;2022-12-18T04:49:00;102699.31;;;16.10;38.42
26443;BME280;5563;52.296;6.806;2022-12-18T04:51:47;102683.19;;;16.10;38.29
26443;BME280;5563;52.296;6.806;2022-12-18T04:54:40;102677.28;;;16.05;38.28
26443;BME280;5563;52.296;6.806;2022-12-18T04:57:27;102672.88;;;16.04;38.52
26443;BME280;5563;52.296;6.806;2022-12-18T05:00:21;102668.22;;;16.06;38.21
26443;BME280;5563;52.296;6.806;2022-12-18T05:03:08;102658.47;;;16.05;38.32
26443;BME280;5563;52.296;6.806;2022-12-18T05:06:03;102649.97;;;15.98;38.29
26443;BME280;5563;52.296;6.806;2022-12-18T05:08:50;102657.72;;;16.03;38.33
26443;BME280;5563;52.296;6.806;2022-12-18T05:11:44;102667.47;;;16.04;38.32
26443;BME280;5563;52.296;6.806;2022-12-18T05:14:31;102672.88;;;16.04;38.31
26443;BME280;5563;52.296;6.806;2022-12-18T05:17:25;102679.34;;;16.01;38.23
26443;BME280;5563;52.296;6.806;2022-12-18T05:20:12;102685.56;;;16.02;38.39
26443;BME280;5563;52.296;6.806;2022-12-18T05:23:06;102683.88;;;16.01;38.57
26443;BME280;5563;52.296;6.806;2022-12-18T05:26:06;102697.44;;;15.99;38.19
26443;BME280;5563;52.296;6.806;2022-12-18T05:29:07;102688.84;;;15.94;38.05
26443;BME280;5563;52.296;6.806;2022-12-18T05:32:01;102661.00;;;15.83;38.12
26443;BME280;5563;52.296;6.806;2022-12-18T05:34:47;102699.16;;;16.00;37.91
26443;BME280;5563;52.296;6.806;2022-12-18T05:37:41;102692.19;;;15.98;38.04
26443;BME280;5563;52.296;6.806;2022-12-18T05:40:29;102698.69;;;16.06;37.94
26443;BME280;5563;52.296;6.806;2022-12-18T05:43:25;102697.09;;;16.04;38.05
26443;BME280;5563;52.296;6.806;2022-12-18T05:46:14;102699.03;;;16.02;37.80
26443;BME280;5563;52.296;6.806;2022-12-18T05:49:08;102697.94;;;16.04;37.91
26443;BME280;5563;52.296;6.806;2022-12-18T05:51:55;102696.44;;;16.00;37.78
26443;BME280;5563;52.296;6.806;2022-12-18T05:54:49;102702.81;;;15.99;37.88
26443;BME280;5563;52.296;6.806;2022-12-18T05:57:36;102708.31;;;15.98;37.96
26443;BME280;5563;52.296;6.806;2022-12-18T06:00:29;102718.97;;;15.99;38.01
26443;BME280;5563;52.296;6.806;2022-12-18T06:03:16;102722.50;;;16.00;37.99
26443;BME280;5563;52.296;6.806;2022-12-18T06:06:25;102722.59;;;15.98;38.11
26443;BME280;5563;52.296;6.806;2022-12-18T06:09:19;102717.56;;;15.94;38.24
26443;BME280;5563;52.296;6.806;2022-12-18T06:12:06;102724.47;;;15.98;37.84
26443;BME280;5563;52.296;6.806;2022-12-18T06:15:00;102730.03;;;15.95;38.31
26443;BME280;5563;52.296;6.806;2022-12-18T06:17:47;102731.91;;;15.94;38.04
26443;BME280;5563;52.296;6.806;2022-12-18T06:20:40;102746.19;;;15.95;37.86
26443;BME280;5563;52.296;6.806;2022-12-18T06:23:28;102744.38;;;15.95;37.86
26443;BME280;5563;52.296;6.806;2022-12-18T06:26:21;102734.78;;;15.91;37.74
26443;BME280;5563;52.296;6.806;2022-12-18T06:29:15;102743.28;;;15.98;37.84
26443;BME280;5563;52.296;6.806;2022-12-18T06:32:08;102730.91;;;15.95;37.78
26443;BME280;5563;52.296;6.806;2022-12-18T06:34:55;102734.13;;;16.00;37.70
26443;BME280;5563;52.296;6.806;2022-12-18T06:37:48;102735.00;;;16.01;37.77
26443;BME280;5563;52.296;6.806;2022-12-18T06:40:41;102732.28;;;16.01;37.54
26443;BME280;5563;52.296;6.806;2022-12-18T06:43:34;102731.53;;;15.99;37.70
26443;BME280;5563;52.296;6.806;2022-12-18T06:46:27;102714.66;;;15.97;37.76
26443;BME280;5563;52.296;6.806;2022-12-18T06:49:21;102718.31;;;15.96;37.91
26443;BME280;5563;52.296;6.806;2022-12-18T06:52:16;102707.69;;;15.94;37.73
26443;BME280;5563;52.296;6.806;2022-12-18T06:55:04;102713.91;;;15.95;37.70
26443;BME280;5563;52.296;6.806;2022-12-18T06:57:58;102704.88;;;15.96;37.83
26443;BME280;5563;52.296;6.806;2022-12-18T07:00:51;102696.94;;;15.94;37.78
26443;BME280;5563;52.296;6.806;2022-12-18T07:03:45;102686.59;;;15.88;37.83
26443;BME280;5563;52.296;6.806;2022-12-18T07:06:32;102691.63;;;15.93;37.93
26443;BME280;5563;52.296;6.806;2022-12-18T07:09:25;102674.13;;;15.87;37.80
26443;BME280;5563;52.296;6.806;2022-12-18T07:12:18;102669.47;;;15.89;37.62
26443;BME280;5563;52.296;6.806;2022-12-18T07:15:11;102672.28;;;15.88;37.63
26443;BME280;5563;52.296;6.806;2022-12-18T07:17:58;102669.72;;;15.86;37.43
26443;BME280;5563;52.296;6.806;2022-12-18T07:20:51;102664.22;;;15.88;37.52
26443;BME280;5563;52.296;6.806;2022-12-18T07:23:38;102672.72;;;15.94;37.68
26443;BME280;5563;52.296;6.806;2022-12-18T07:26:38;102662.16;;;15.91;37.26
26443;BME280;5563;52.296;6.806;2022-12-18T07:29:32;102665.34;;;15.96;37.39
26443;BME280;5563;52.296;6.806;2022-12-18T07:32:25;102666.09;;;15.98;37.47
26443;BME280;5563;52.296;6.806;2022-12-18T07:35:18;102668.91;;;15.97;37.27
26443;BME280;5563;52.296;6.806;2022-12-18T07:38:10;102669.66;;;15.99;37.31
26443;BME280;5563;52.296;6.806;2022-12-18T07:41:12;102681.28;;;15.99;37.29
26443;BME280;5563;52.296;6.806;2022-12-18T07:43:40;102683.22;;;15.97;35.49
26443;BME280;5563;52.296;6.806;2022-12-18T07:46:34;102674.41;;;15.95;36.57
26443;BME280;5563;52.296;6.806;2022-12-18T07:49:22;102683.22;;;15.97;35.68
26443;BME280;5563;52.296;6.806;2022-12-18T07:52:15;102685.38;;;16.05;37.18
26443;BME280;5563;52.296;6.806;2022-12-18T07:55:12;102676.94;;;16.09;37.08
26443;BME280;5563;52.296;6.806;2022-12-18T07:58:05;102681.19;;;16.25;36.94
26443;BME280;5563;52.296;6.806;2022-12-18T08:00:52;102683.81;;;16.37;36.91
26443;BME280;5563;52.296;6.806;2022-12-18T08:03:46;102677.94;;;16.43;36.98
26443;BME280;5563;52.296;6.806;2022-12-18T08:06:39;102669.09;;;16.41;37.07
26443;BME280;5563;52.296;6.806;2022-12-18T08:09:34;102674.38;;;16.43;36.96
26443;BME280;5563;52.296;6.806;2022-12-18T08:12:20;102680.38;;;16.46;37.20
26443;BME280;5563;52.296;6.806;2022-12-18T08:15:14;102678.34;;;16.50;37.25
26443;BME280;5563;52.296;6.806;2022-12-18T08:18:01;102656.81;;;16.50;37.19
26443;BME280;5563;52.296;6.806;2022-12-18T08:21:29;102660.75;;;16.57;37.23
26443;BME280;5563;52.296;6.806;2022-12-18T08:24:23;102674.00;;;16.60;37.14
26443;BME280;5563;52.296;6.806;2022-12-18T08:27:16;102664.91;;;16.61;36.94
26443;BME280;5563;52.296;6.806;2022-12-18T08:30:16;102668.47;;;16.61;36.99
26443;BME280;5563;52.296;6.806;2022-12-18T08:33:10;102655.38;;;16.68;37.14
26443;BME280;5563;52.296;6.806;2022-12-18T08:36:08;102645.09;;;16.73;37.08
26443;BME280;5563;52.296;6.806;2022-12-18T08:39:02;102652.00;;;16.88;35.98
26443;BME280;5563;52.296;6.806;2022-12-18T08:41:58;102647.47;;;16.88;36.77
26443;BME280;5563;52.296;6.806;2022-12-18T08:45:04;102641.09;;;16.89;36.55
26443;BME280;5563;52.296;6.806;2022-12-18T08:47:58;102630.56;;;16.86;36.71
26443;BME280;5563;52.296;6.806;2022-12-18T08:50:57;102643.06;;;16.98;36.72
26443;BME280;5563;52.296;6.806;2022-12-18T08:53:52;102628.97;;;16.95;37.07
26443;BME280;5563;52.296;6.806;2022-12-18T08:56:39;102624.81;;;16.91;36.72
26443;BME280;5563;52.296;6.806;2022-12-18T08:59:33;102638.78;;;16.96;36.80
26443;BME280;5563;52.296;6.806;2022-12-18T09:02:26;102632.75;;;16.92;37.08
26443;BME280;5563;52.296;6.806;2022-12-18T09:05:13;102641.84;;;16.91;37.06
26443;BME280;5563;52.296;6.806;2022-12-18T09:08:07;102634.00;;;16.88;37.35
26443;BME280;5563;52.296;6.806;2022-12-18T09:10:55;102618.31;;;16.82;36.96
26443;BME280;5563;52.296;6.806;2022-12-18T09:13:48;102635.72;;;16.89;37.19
26443;BME280;5563;52.296;6.806;2022-12-18T09:16:35;102634.97;;;16.87;37.22
26443;BME280;5563;52.296;6.806;2022-12-18T09:19:29;102638.06;;;16.94;37.19
26443;BME280;5563;52.296;6.806;2022-12-18T09:22:23;102639.50;;;16.98;37.11
26443;BME280;5563;52.296;6.806;2022-12-18T09:25:10;102640.13;;;17.12;36.85
26443;BME280;5563;52.296;6.806;2022-12-18T09:28:18;102641.59;;;17.16;37.23
26443;BME280;5563;52.296;6.806;2022-12-18T09:31:13;102645.25;;;17.15;37.09
26443;BME280;5563;52.296;6.806;2022-12-18T09:34:00;102654.84;;;17.19;37.15
26443;BME280;5563;52.296;6.806;2022-12-18T09:36:53;102643.78;;;17.22;37.08
26443;BME280;5563;52.296;6.806;2022-12-18T09:39:46;102639.28;;;17.23;36.80
26443;BME280;5563;52.296;6.806;2022-12-18T09:42:39;102619.06;;;17.17;36.85
26443;BME280;5563;52.296;6.806;2022-12-18T09:45:27;102614.03;;;17.24;36.71
26443;BME280;5563;52.296;6.806;2022-12-18T09:48:27;102613.31;;;17.22;36.50
26443;BME280;5563;52.296;6.806;2022-12-18T09:51:32;102611.84;;;17.18;36.88
26443;BME280;5563;52.296;6.806;2022-12-18T09:54:35;102611.09;;;17.16;36.96
26443;BME280;5563;52.296;6.806;2022-12-18T09:57:33;102619.31;;;17.14;37.08
26443;BME280;5563;52.296;6.806;2022-12-18T10:00:24;102616.63;;;17.14;37.35
26443;BME280;5563;52.296;6.806;2022-12-18T10:03:18;102618.31;;;17.15;36.98
26443;BME280;5563;52.296;6.806;2022-12-18T10:06:14;102611.22;;;17.14;36.98
26443;BME280;5563;52.296;6.806;2022-12-18T10:09:33;102604.22;;;17.12;37.04
26443;BME280;5563;52.296;6.806;2022-12-18T10:12:44;102606.56;;;17.16;37.05
26443;BME280;5563;52.296;6.806;2022-12-18T10:16:14;102624.09;;;17.22;36.13
26443;BME280;5563;52.296;6.806;2022-12-18T10:25:35;102563.44;;;17.16;36.95
26443;BME280;5563;52.296;6.806;2022-12-18T10:28:40;102542.09;;;17.13;36.95
26443;BME280;5563;52.296;6.806;2022-12-18T10:31:33;102554.22;;;17.19;37.06
26443;BME280;5563;52.296;6.806;2022-12-18T10:34:20;102541.47;;;17.21;37.02
26443;BME280;5563;52.296;6.806;2022-12-18T10:37:17;102529.97;;;17.19;37.10
26443;BME280;5563;52.296;6.806;2022-12-18T10:40:11;102524.81;;;17.27;37.00
26443;BME280;5563;52.296;6.806;2022-12-18T10:43:12;102510.47;;;17.26;36.93
26443;BME280;5563;52.296;6.806;2022-12-18T10:46:13;102517.31;;;17.42;37.22
26443;BME280;5563;52.296;6.806;2022-12-18T10:49:27;102514.63;;;17.42;37.04
26443;BME280;5563;52.296;6.806;2022-12-18T10:52:22;102519.00;;;17.43;37.15
26443;BME280;5563;52.296;6.806;2022-12-18T10:55:15;102513.63;;;17.43;37.20
26443;BME280;5563;52.296;6.806;2022-12-18T10:58:30;102507.16;;;17.34;37.23
26443;BME280;5563;52.296;6.806;2022-12-18T11:01:27;102523.81;;;17.39;37.23
26443;BME280;5563;52.296;6.806;2022-12-18T11:04:23;102502.72;;;17.33;37.06
26443;BME280;5563;52.296;6.806;2022-12-18T11:07:16;102492.34;;;17.28;37.22
26443;BME280;5563;52.296;6.806;2022-12-18T11:10:03;102495.91;;;17.29;37.36
26443;BME280;5563;52.296;6.806;2022-12-18T11:13:10;102492.06;;;17.32;37.27
26443;BME280;5563;52.296;6.806;2022-12-18T11:15:58;102495.91;;;17.29;37.39
26443;BME280;5563;52.296;6.806;2022-12-18T11:18:52;102501.53;;;17.26;37.45
26443;BME280;5563;52.296;6.806;2022-12-18T11:21:41;102486.97;;;17.17;37.78
26443;BME280;5563;52.296;6.806;2022-12-18T11:24:35;102496.78;;;17.18;37.74
26443;BME280;5563;52.296;6.806;2022-12-18T11:27:51;102484.06;;;17.09;38.09
26443;BME280;5563;52.296;6.806;2022-12-18T11:34:12;102470.59;;;16.98;38.20
26443;BME280;5563;52.296;6.806;2022-12-18T11:37:16;102467.03;;;16.98;38.27
26443;BME280;5563;52.296;6.806;2022-12-18T11:40:20;102461.78;;;16.96;38.32
26443;BME280;5563;52.296;6.806;2022-12-18T11:43:58;102462.31;;;16.90;38.20
26443;BME280;5563;52.296;6.806;2022-12-18T11:46:38;102450.41;;;16.82;38.43
26443;BME280;5563;52.296;6.806;2022-12-18T11:49:39;102462.81;;;16.84;38.22
26443;BME280;5563;52.296;6.806;2022-12-18T11:52:36;102442.13;;;16.74;38.36
26443;BME280;5563;52.296;6.806;2022-12-18T11:59:02;102453.38;;;16.68;38.46
26443;BME280;5563;52.296;6.806;2022-12-18T12:14:52;102431.75;;;16.58;38.68
26443;BME280;5563;52.296;6.806;2022-12-18T12:18:03;102426.72;;;16.54;38.59
26443;BME280;5563;52.296;6.806;2022-12-18T12:21:13;102426.72;;;16.54;38.64
26443;BME280;5563;52.296;6.806;2022-12-18T12:30:09;102394.97;;;16.46;38.87
26443;BME280;5563;52.296;6.806;2022-12-18T12:39:41;102377.50;;;16.41;38.75
26443;BME280;5563;52.296;6.806;2022-12-18T12:42:41;102364.53;;;16.35;38.76
26443;BME280;5563;52.296;6.806;2022-12-18T12:46:20;102375.78;;;16.40;38.92
26443;BME280;5563;52.296;6.806;2022-12-18T12:49:15;102371.53;;;16.37;39.01
26443;BME280;5563;52.296;6.806;2022-12-18T12:52:20;102364.19;;;16.28;39.04
26443;BME280;5563;52.296;6.806;2022-12-18T12:55:25;102368.22;;;16.34;39.12
26443;BME280;5563;52.296;6.806;2022-12-18T12:58:54;102366.63;;;16.31;38.98
26443;BME280;5563;52.296;6.806;2022-12-18T13:02:10;102367.63;;;16.30;39.11
26443;BME280;5563;52.296;6.806;2022-12-18T13:05:20;102354.25;;;16.29;39.04
26443;BME280;5563;52.296;6.806;2022-12-18T13:08:54;102352.69;;;16.26;38.94
26443;BME280;5563;52.296;6.806;2022-12-18T13:11:45;102355.25;;;16.28;38.98
26443;BME280;5563;52.296;6.806;2022-12-18T13:15:13;102342.88;;;16.25;39.19
26443;BME280;5563;52.296;6.806;2022-12-18T13:18:20;102339.09;;;16.28;39.11
26443;BME280;5563;52.296;6.806;2022-12-18T13:21:21;102333.97;;;16.25;38.90
26443;BME280;5563;52.296;6.806;2022-12-18T13:24:26;102340.31;;;16.23;38.98
26443;BME280;5563;52.296;6.806;2022-12-18T13:30:49;102335.31;;;16.19;38.49
26443;BME280;5563;52.296;6.806;2022-12-18T13:33:46;102336.16;;;16.19;38.90
26443;BME280;5563;52.296;6.806;2022-12-18T13:43:39;102331.78;;;16.18;38.86
26443;BME280;5563;52.296;6.806;2022-12-18T13:46:29;102316.50;;;16.19;39.05
26443;BME280;5563;52.296;6.806;2022-12-18T13:49:36;102319.19;;;16.19;39.08
26443;BME280;5563;52.296;6.806;2022-12-18T13:52:37;102305.34;;;16.12;38.95
26443;BME280;5563;52.296;6.806;2022-12-18T13:55:32;102305.00;;;16.17;38.91
26443;BME280;5563;52.296;6.806;2022-12-18T13:58:20;102294.34;;;16.15;38.92
26443;BME280;5563;52.296;6.806;2022-12-18T14:01:23;102284.56;;;16.14;38.89
26443;BME280;5563;52.296;6.806;2022-12-18T14:04:16;102286.50;;;16.12;39.04
26443;BME280;5563;52.296;6.806;2022-12-18T14:07:12;102282.97;;;16.12;39.04
26443;BME280;5563;52.296;6.806;2022-12-18T14:10:13;102281.25;;;16.11;38.89
26443;BME280;5563;52.296;6.806;2022-12-18T14:13:28;102277.00;;;16.08;39.09
26443;BME280;5563;52.296;6.806;2022-12-18T14:16:22;102266.09;;;16.10;39.11
26443;BME280;5563;52.296;6.806;2022-12-18T14:19:24;102259.84;;;16.09;39.00
26443;BME280;5563;52.296;6.806;2022-12-18T14:22:20;102256.31;;;16.09;38.90
26443;BME280;5563;52.296;6.806;2022-12-18T14:25:22;102237.59;;;16.07;38.84
26443;BME280;5563;52.296;6.806;2022-12-18T14:28:22;102245.81;;;16.06;38.93
26443;BME280;5563;52.296;6.806;2022-12-18T14:31:28;102241.91;;;15.99;38.93
26443;BME280;5563;52.296;6.806;2022-12-18T14:34:26;102248.97;;;16.00;39.20
26443;BME280;5563;52.296;6.806;2022-12-18T14:37:24;102255.47;;;15.97;39.12
26443;BME280;5563;52.296;6.806;2022-12-18T14:40:14;102251.66;;;16.00;38.90
26443;BME280;5563;52.296;6.806;2022-12-18T14:43:10;102258.50;;;16.04;39.04
26443;BME280;5563;52.296;6.806;2022-12-18T14:52:27;102225.75;;;15.99;39.02
26443;BME280;5563;52.296;6.806;2022-12-18T14:55:20;102242.50;;;16.02;39.09
26443;BME280;5563;52.296;6.806;2022-12-18T14:58:17;102219.03;;;15.93;38.90
26443;BME280;5563;52.296;6.806;2022-12-18T15:01:04;102230.13;;;16.00;38.94
26443;BME280;5563;52.296;6.806;2022-12-18T15:03:58;102217.56;;;16.00;39.16
26443;BME280;5563;52.296;6.806;2022-12-18T15:10:10;102225.41;;;16.03;39.05
26443;BME280;5563;52.296;6.806;2022-12-18T15:16:01;102215.47;;;16.04;38.96
26443;BME280;5563;52.296;6.806;2022-12-18T15:18:56;102224.53;;;16.03;38.95
26443;BME280;5563;52.296;6.806;2022-12-18T15:21:43;102207.91;;;15.98;38.91
26443;BME280;5563;52.296;6.806;2022-12-18T15:24:36;102214.63;;;16.03;38.76
26443;BME280;5563;52.296;6.806;2022-12-18T15:27:36;102190.91;;;15.97;38.78
26443;BME280;5563;52.296;6.806;2022-12-18T15:30:30;102193.47;;;15.99;39.01
26443;BME280;5563;52.296;6.806;2022-12-18T15:33:26;102192.38;;;16.01;38.97
26443;BME280;5563;52.296;6.806;2022-12-18T15:36:22;102176.59;;;15.97;38.91
26443;BME280;5563;52.296;6.806;2022-12-18T15:39:15;102168.53;;;15.97;38.59
26443;BME280;5563;52.296;6.806;2022-12-18T15:42:09;102169.13;;;16.00;38.92
26443;BME280;5563;52.296;6.806;2022-12-18T15:45:29;102179.28;;;16.08;38.94
26443;BME280;5563;52.296;6.806;2022-12-18T15:48:23;102155.06;;;16.08;37.93
26443;BME280;5563;52.296;6.806;2022-12-18T15:51:22;102170.63;;;16.25;38.34
26443;BME280;5563;52.296;6.806;2022-12-18T15:54:13;102138.41;;;16.14;38.49
26443;BME280;5563;52.296;6.806;2022-12-18T15:57:10;102175.72;;;16.39;38.32
26443;BME280;5563;52.296;6.806;2022-12-18T16:00:12;102181.47;;;16.46;38.09
26443;BME280;5563;52.296;6.806;2022-12-18T16:03:05;102188.53;;;16.58;37.94
26443;BME280;5563;52.296;6.806;2022-12-18T16:06:00;102169.53;;;16.59;38.10
26443;BME280;5563;52.296;6.806;2022-12-18T16:09:02;102187.63;;;16.68;38.05
26443;BME280;5563;52.296;6.806;2022-12-18T16:11:48;102181.97;;;16.71;38.01
26443;BME280;5563;52.296;6.806;2022-12-18T16:14:42;102159.59;;;16.71;38.16
26443;BME280;5563;52.296;6.806;2022-12-18T16:17:29;102157.19;;;16.77;37.70
26443;BME280;5563;52.296;6.806;2022-12-18T16:20:22;102149.19;;;16.87;37.86
26443;BME280;5563;52.296;6.806;2022-12-18T16:23:15;102138.28;;;16.88;37.63
26443;BME280;5563;52.296;6.806;2022-12-18T16:26:08;102133.03;;;16.87;37.76
26443;BME280;5563;52.296;6.806;2022-12-18T16:29:01;102123.22;;;16.86;37.97
26443;BME280;5563;52.296;6.806;2022-12-18T16:31:48;102118.13;;;16.83;37.93
26443;BME280;5563;52.296;6.806;2022-12-18T16:34:42;102132.75;;;16.90;37.98
26443;BME280;5563;52.296;6.806;2022-12-18T16:37:35;102119.50;;;16.77;37.97
26443;BME280;5563;52.296;6.806;2022-12-18T16:40:31;102141.16;;;16.96;38.13
26443;BME280;5563;52.296;6.806;2022-12-18T16:43:18;102138.91;;;17.01;37.87